CheckWX is a tool to help pilots better visualize weather data.  It is not intended as a substitute for an official pre-flight weather briefing.

06:46:22 UTC

KIAD TAF
Washington Dulles International Airport
Washington, Virginia, USA
KIAD 160526Z 1606/1712 18007KT P6SM BKN120 FM161500 21009KT P6SM BKN040 FM161900 23010KT P6SM BKN045 FM162100 23009KT 6SM -SHRA VCTS OVC060CB FM170000 24005KT P6SM BKN060 FM170700 VRB03KT P6SM BKN080

Jun-16@
06:00 UTC

Jun-16 @ 06:00 UTC

Jun-16@
15:00 UTC

Jun-16 @ 15:00 UTC

KIAD 160526Z 1606/1712 18007KT P6SM BKN120
Wind
  • 180° at 7 KTS
Cloud Levels
  • Broken at 12,000' AGL

Jun-16@
15:00 UTC

Jun-16 @ 15:00 UTC

Jun-16@
19:00 UTC

Jun-16 @ 19:00 UTC

FM161500 21009KT P6SM BKN040

From

From Standard forecast or significant change

Wind
  • 210° at 9 KTS
Cloud Levels
  • Broken at 4,000' AGL

Jun-16@
19:00 UTC

Jun-16 @ 19:00 UTC

Jun-16@
21:00 UTC

Jun-16 @ 21:00 UTC

FM161900 23010KT P6SM BKN045

From

From Standard forecast or significant change

Wind
  • 230° at 10 KTS
Cloud Levels
  • Broken at 4,500' AGL

Jun-16@
21:00 UTC

Jun-16 @ 21:00 UTC

Jun-17@
00:00 UTC

Jun-17 @ 00:00 UTC

FM162100 23009KT 6SM -SHRA VCTS OVC060CB

From

From Standard forecast or significant change

Wind
  • 230° at 9 KTS
Conditions
Light Rain, Area Thunderstorm
Cloud Levels
  • Overcast at 6,000' AGL

Jun-17@
00:00 UTC

Jun-17 @ 00:00 UTC

Jun-17@
07:00 UTC

Jun-17 @ 07:00 UTC

FM170000 24005KT P6SM BKN060

From

From Standard forecast or significant change

Wind
  • 240° at 5 KTS
Cloud Levels
  • Broken at 6,000' AGL

Jun-17@
07:00 UTC

Jun-17 @ 07:00 UTC

Jun-17@
12:00 UTC

Jun-17 @ 12:00 UTC

FM170700 VRB03KT P6SM BKN080

From

From Standard forecast or significant change

Wind
  • Variable at 3 KTS
Cloud Levels
  • Broken at 8,000' AGL